Time;durP1;ratioP1;P1;durP2;ratioP2;P2;SDS_P1;SDS_P2;PMS_P1;PMS_P2;Temp;Humidity;BMP_temperature;BMP_pressure;BME280_temperature;BME280_humidity;BME280_pressure;Samples;Min_cycle;Max_cycle;Signal;HPM_P1;HPM_P2
2023/05/20 00:00:25;;;;;;;;;;;;;;;;;;5000186;28;19926;-68
2023/05/20 00:02:52;;;;;;;;;;;;;;;;;;4995820;28;19940;-68
2023/05/20 00:05:19;;;;;;;;;;;;;;;;;;4996404;28;19966;-67
2023/05/20 00:07:46;;;;;;;;;;;;;;;;;;4998381;28;19932;-68
2023/05/20 00:10:13;;;;;;;;;;;;;;;;;;4995722;28;19968;-67
2023/05/20 00:12:40;;;;;;;;;;;;;;;;;;5009966;28;19964;-67
2023/05/20 00:15:07;;;;;;;;;;;;;;;;;;5012834;28;20442;-67
2023/05/20 00:17:34;;;;;;;;;;;;;;;;;;5013378;28;19929;-67
2023/05/20 00:20:01;;;;;;;;;;;;;;;;;;5013216;28;19926;-67
2023/05/20 00:22:28;;;;;;;;;;;;;;;;;;5012996;28;19995;-68
2023/05/20 00:24:55;;;;;;;;;;;;;;;;;;5015433;28;19977;-67
2023/05/20 00:27:22;;;;;;;;;;;;;;;;;;5012744;28;19972;-67
2023/05/20 00:29:49;;;;;;;;;;;;;;;;;;5007722;28;19925;-67
2023/05/20 00:32:16;;;;;;;;;;;;;;;;;;4998995;28;20364;-67
2023/05/20 00:34:43;;;;;;;;;;;;;;;;;;5014152;28;20011;-67
2023/05/20 00:37:10;;;;;;;;;;;;;;;;;;5012012;28;20450;-67
2023/05/20 00:39:37;;;;;;;;;;;;;;;;;;5014125;28;19969;-67
2023/05/20 00:42:04;;;;;;;;;;;;;;;;;;5014327;28;19929;-67
2023/05/20 00:44:32;;;;;;;;;;;;;;;;;;5013266;28;19942;-68
2023/05/20 00:46:59;;;;;;;;;;;;;;;;;;5012620;28;19925;-67
2023/05/20 00:49:26;;;;;;;;;;;;;;;;;;5004396;28;19926;-67
2023/05/20 00:51:53;;;;;;;;;;;;;;;;;;5011336;28;19925;-67
2023/05/20 00:54:20;;;;;;;;;;;;;;;;;;5013620;28;19929;-67
2023/05/20 00:56:47;;;;;;;;;;;;;;;;;;5005708;28;19963;-67
2023/05/20 00:59:14;;;;;;;;;;;;;;;;;;5011414;28;20023;-67
2023/05/20 01:01:41;;;;;;;;;;;;;;;;;;5012497;28;19926;-67
2023/05/20 01:04:08;;;;;;;;;;;;;;;;;;5013174;28;20462;-67
2023/05/20 01:06:36;;;;;;;;;;;;;;;;;;5008237;28;19949;-68
2023/05/20 01:09:03;;;;;;;;;;;;;;;;;;5009393;28;19932;-67
2023/05/20 01:11:30;;;;;;;;;;;;;;;;;;5005394;28;20407;-67
2023/05/20 01:13:57;;;;;;;;;;;;;;;;;;5014382;28;19979;-68
2023/05/20 01:16:24;;;;;;;;;;;;;;;;;;5012501;28;20324;-68
2023/05/20 01:18:53;;;;;;;;;;;;;;;;;;5012206;28;19925;-68
2023/05/20 01:21:21;;;;;;;;;;;;;;;;;;4999459;28;20388;-68
2023/05/20 01:23:48;;;;;;;;;;;;;;;;;;5013091;28;20304;-68
2023/05/20 01:26:17;;;;;;;;;;;;;;;;;;5012974;28;19925;-68
2023/05/20 01:28:44;;;;;;;;;;;;;;;;;;5012351;28;19925;-67
2023/05/20 01:31:11;;;;;;;;;;;;;;;;;;5013462;28;19964;-67
2023/05/20 01:33:38;;;;;;;;;;;;;;;;;;5013824;28;20008;-67
2023/05/20 01:36:05;;;;;;;;;;;;;;;;;;5010976;28;19926;-67
2023/05/20 01:38:32;;;;;;;;;;;;;;;;;;5012084;28;19929;-68
2023/05/20 01:40:59;;;;;;;;;;;;;;;;;;5013392;28;19980;-68
2023/05/20 01:43:26;;;;;;;;;;;;;;;;;;5013107;28;19968;-68
2023/05/20 01:45:53;;;;;;;;;;;;;;;;;;5010077;28;19926;-68
2023/05/20 01:48:20;;;;;;;;;;;;;;;;;;5010951;28;19984;-68
2023/05/20 01:50:47;;;;;;;;;;;;;;;;;;5007010;28;19926;-68
2023/05/20 01:53:14;;;;;;;;;;;;;;;;;;5011174;28;20352;-68
2023/05/20 01:55:42;;;;;;;;;;;;;;;;;;5011785;28;19926;-68
2023/05/20 01:58:09;;;;;;;;;;;;;;;;;;5007485;28;19972;-67
2023/05/20 02:00:36;;;;;;;;;;;;;;;;;;5009787;28;20024;-68
2023/05/20 02:03:03;;;;;;;;;;;;;;;;;;5011740;28;20388;-68
2023/05/20 02:05:30;;;;;;;;;;;;;;;;;;5002883;28;19926;-67
2023/05/20 02:07:57;;;;;;;;;;;;;;;;;;5005470;28;20408;-68
2023/05/20 02:10:24;;;;;;;;;;;;;;;;;;5009759;28;19925;-68
2023/05/20 02:12:51;;;;;;;;;;;;;;;;;;5011988;28;20355;-68
2023/05/20 02:15:18;;;;;;;;;;;;;;;;;;5011384;28;19999;-68
2023/05/20 02:17:45;;;;;;;;;;;;;;;;;;5009247;28;19965;-67
2023/05/20 02:20:12;;;;;;;;;;;;;;;;;;5009477;28;19933;-68
2023/05/20 02:22:39;;;;;;;;;;;;;;;;;;5004081;28;19933;-67
2023/05/20 02:25:07;;;;;;;;;;;;;;;;;;5011710;28;19930;-68
2023/05/20 02:27:34;;;;;;;;;;;;;;;;;;5011956;28;19940;-68
2023/05/20 02:30:01;;;;;;;;;;;;;;;;;;5008337;28;19951;-68
2023/05/20 02:32:28;;;;;;;;;;;;;;;;;;5009008;28;19956;-68
2023/05/20 02:34:55;;;;;;;;;;;;;;;;;;5011436;28;20035;-68
2023/05/20 02:37:22;;;;;;;;;;;;;;;;;;5012331;28;19925;-67
2023/05/20 02:39:49;;;;;;;;;;;;;;;;;;5009802;28;19926;-68
2023/05/20 02:42:16;;;;;;;;;;;;;;;;;;5011997;28;19926;-68
2023/05/20 02:44:43;;;;;;;;;;;;;;;;;;5011407;28;20324;-68
2023/05/20 02:47:10;;;;;;;;;;;;;;;;;;5010505;28;19937;-67
2023/05/20 02:49:37;;;;;;;;;;;;;;;;;;5006866;28;20340;-68
2023/05/20 02:52:04;;;;;;;;;;;;;;;;;;5010435;28;20047;-67
2023/05/20 02:54:31;;;;;;;;;;;;;;;;;;5010198;28;19930;-67
2023/05/20 02:56:58;;;;;;;;;;;;;;;;;;5004230;28;19926;-67
2023/05/20 02:59:25;;;;;;;;;;;;;;;;;;5004692;28;19925;-68
2023/05/20 03:01:52;;;;;;;;;;;;;;;;;;5010925;28;19949;-67
2023/05/20 03:04:20;;;;;;;;;;;;;;;;;;5007724;28;19979;-68
2023/05/20 03:06:47;;;;;;;;;;;;;;;;;;5008614;28;19980;-68
2023/05/20 03:09:14;;;;;;;;;;;;;;;;;;5007765;28;20392;-66
2023/05/20 03:11:41;;;;;;;;;;;;;;;;;;5012329;28;19929;-66
2023/05/20 03:14:08;;;;;;;;;;;;;;;;;;5011798;28;19995;-66
2023/05/20 03:16:35;;;;;;;;;;;;;;;;;;5011193;28;19929;-66
2023/05/20 03:19:02;;;;;;;;;;;;;;;;;;5012041;28;19925;-67
2023/05/20 03:21:29;;;;;;;;;;;;;;;;;;5008945;28;20444;-67
2023/05/20 03:23:56;;;;;;;;;;;;;;;;;;5009283;28;20064;-67
2023/05/20 03:26:24;;;;;;;;;;;;;;;;;;5009523;28;19926;-68
2023/05/20 03:28:51;;;;;;;;;;;;;;;;;;5011933;28;19957;-67
2023/05/20 03:31:18;;;;;;;;;;;;;;;;;;5012240;28;19926;-67
2023/05/20 03:33:46;;;;;;;;;;;;;;;;;;5010398;28;20408;-67
2023/05/20 03:36:13;;;;;;;;;;;;;;;;;;5003704;28;19969;-68
2023/05/20 03:38:40;;;;;;;;;;;;;;;;;;5011310;28;20348;-68
2023/05/20 03:41:07;;;;;;;;;;;;;;;;;;5013359;28;19947;-67
2023/05/20 03:43:34;;;;;;;;;;;;;;;;;;5014983;28;19926;-67
2023/05/20 03:46:01;;;;;;;;;;;;;;;;;;5015118;28;20373;-67
2023/05/20 03:48:28;;;;;;;;;;;;;;;;;;5013067;28;19926;-67
2023/05/20 03:50:55;;;;;;;;;;;;;;;;;;5012489;28;19949;-68
2023/05/20 03:53:22;;;;;;;;;;;;;;;;;;5014546;28;20286;-68
2023/05/20 03:55:49;;;;;;;;;;;;;;;;;;5010925;28;19968;-68
2023/05/20 03:58:16;;;;;;;;;;;;;;;;;;5014210;28;20373;-67
2023/05/20 04:00:42;;;;;;;;;;;;;;;;;;5006286;28;19926;-66
2023/05/20 04:03:10;;;;;;;;;;;;;;;;;;5015083;28;19999;-66
2023/05/20 04:05:37;;;;;;;;;;;;;;;;;;5013416;28;20024;-67
2023/05/20 04:08:04;;;;;;;;;;;;;;;;;;5009899;28;19948;-66
2023/05/20 04:10:32;;;;;;;;;;;;;;;;;;5015519;28;20335;-67
2023/05/20 04:12:59;;;;;;;;;;;;;;;;;;5012758;28;20355;-66
2023/05/20 04:15:28;;;;;;;;;;;;;;;;;;5011876;28;20420;-67
2023/05/20 04:17:55;;;;;;;;;;;;;;;;;;5008063;28;19969;-67
2023/05/20 04:20:23;;;;;;;;;;;;;;;;;;5003645;28;20462;-67
2023/05/20 04:22:51;;;;;;;;;;;;;;;;;;5006529;28;19930;-67
2023/05/20 04:25:18;;;;;;;;;;;;;;;;;;5010703;28;19925;-67
2023/05/20 04:27:45;;;;;;;;;;;;;;;;;;5012888;28;19929;-67
2023/05/20 04:30:12;;;;;;;;;;;;;;;;;;5015355;28;19929;-67
2023/05/20 04:32:40;;;;;;;;;;;;;;;;;;5011466;28;20012;-67
2023/05/20 04:35:10;;;;;;;;;;;;;;;;;;5003952;28;19973;-67
2023/05/20 04:37:37;;;;;;;;;;;;;;;;;;5012381;28;20004;-68
2023/05/20 04:40:05;;;;;;;;;;;;;;;;;;5012912;28;19929;-67
2023/05/20 04:42:32;;;;;;;;;;;;;;;;;;5015028;28;19925;-67
2023/05/20 04:45:00;;;;;;;;;;;;;;;;;;5014686;28;19957;-67
2023/05/20 04:47:28;;;;;;;;;;;;;;;;;;5012863;28;20388;-66
2023/05/20 04:49:56;;;;;;;;;;;;;;;;;;5004246;28;19925;-66
2023/05/20 04:52:23;;;;;;;;;;;;;;;;;;5010748;28;20351;-66
2023/05/20 04:54:50;;;;;;;;;;;;;;;;;;5006476;28;19926;-66
2023/05/20 04:57:19;;;;;;;;;;;;;;;;;;5012090;28;19971;-66
2023/05/20 04:59:46;;;;;;;;;;;;;;;;;;5006524;28;19926;-66
2023/05/20 05:02:14;;;;;;;;;;;;;;;;;;5013075;28;20331;-66
2023/05/20 05:04:41;;;;;;;;;;;;;;;;;;5005768;28;19925;-66
2023/05/20 05:07:08;;;;;;;;;;;;;;;;;;5009155;28;19925;-66
2023/05/20 05:09:35;;;;;;;;;;;;;;;;;;5003239;28;19979;-66
2023/05/20 05:12:02;;;;;;;;;;;;;;;;;;5014021;28;19933;-66
2023/05/20 05:14:29;;;;;;;;;;;;;;;;;;5013756;28;19934;-66
2023/05/20 05:16:56;;;;;;;;;;;;;;;;;;5013022;28;19926;-67
2023/05/20 05:19:23;;;;;;;;;;;;;;;;;;5005179;28;19926;-66
2023/05/20 05:21:51;;;;;;;;;;;;;;;;;;5011499;28;20347;-66
2023/05/20 05:24:18;;;;;;;;;;;;;;;;;;5003724;28;19972;-67
2023/05/20 05:26:45;;;;;;;;;;;;;;;;;;5011540;28;19964;-67
2023/05/20 05:29:12;;;;;;;;;;;;;;;;;;5010090;28;20348;-67
2023/05/20 05:31:39;;;;;;;;;;;;;;;;;;5011793;28;19926;-66
2023/05/20 05:34:06;;;;;;;;;;;;;;;;;;5015071;28;19925;-66
2023/05/20 05:36:33;;;;;;;;;;;;;;;;;;5011384;28;20348;-66
2023/05/20 05:39:00;;;;;;;;;;;;;;;;;;5008008;28;19925;-67
2023/05/20 05:41:27;;;;;;;;;;;;;;;;;;5008051;28;20415;-67
2023/05/20 05:43:54;;;;;;;;;;;;;;;;;;5012263;28;19926;-67
2023/05/20 05:46:21;;;;;;;;;;;;;;;;;;5010830;28;19925;-68
2023/05/20 05:48:49;;;;;;;;;;;;;;;;;;5008136;28;20399;-67
2023/05/20 05:51:16;;;;;;;;;;;;;;;;;;5008370;28;19980;-67
2023/05/20 05:53:43;;;;;;;;;;;;;;;;;;5011266;28;19929;-67
2023/05/20 05:56:10;;;;;;;;;;;;;;;;;;5012464;28;19925;-67
2023/05/20 05:58:37;;;;;;;;;;;;;;;;;;4999591;28;20422;-67
2023/05/20 06:01:04;;;;;;;;;;;;;;;;;;5007526;28;19926;-67
2023/05/20 06:03:31;;;;;;;;;;;;;;;;;;5007804;28;20026;-67
2023/05/20 06:05:58;;;;;;;;;;;;;;;;;;5011723;28;20380;-67
2023/05/20 06:08:26;;;;;;;;;;;;;;;;;;5011310;28;19980;-68
2023/05/20 06:10:53;;;;;;;;;;;;;;;;;;5009900;28;20008;-68
2023/05/20 06:13:20;;;;;;;;;;;;;;;;;;5011497;28;19933;-67
2023/05/20 06:15:47;;;;;;;;;;;;;;;;;;5011987;28;19980;-68
2023/05/20 06:18:14;;;;;;;;;;;;;;;;;;5012439;28;19926;-68
2023/05/20 06:20:41;;;;;;;;;;;;;;;;;;4996650;28;19925;-69
2023/05/20 06:23:08;;;;;;;;;;;;;;;;;;4997541;28;19933;-69
2023/05/20 06:25:35;;;;;;;;;;;;;;;;;;5007854;28;20443;-68
2023/05/20 06:28:02;;;;;;;;;;;;;;;;;;5008402;28;19972;-69
2023/05/20 06:30:29;;;;;;;;;;;;;;;;;;5002464;28;21738;-68
2023/05/20 06:32:56;;;;;;;;;;;;;;;;;;5002869;28;19935;-68
2023/05/20 06:35:23;;;;;;;;;;;;;;;;;;5007880;28;20309;-67
2023/05/20 06:37:50;;;;;;;;;;;;;;;;;;5007735;28;19979;-70
2023/05/20 06:40:18;;;;;;;;;;;;;;;;;;5002972;28;20289;-69
2023/05/20 06:42:45;;;;;;;;;;;;;;;;;;5005261;28;19925;-70
2023/05/20 06:45:12;;;;;;;;;;;;;;;;;;5010614;28;20349;-69
2023/05/20 06:47:39;;;;;;;;;;;;;;;;;;5009233;28;19929;-70
2023/05/20 06:50:06;;;;;;;;;;;;;;;;;;5009327;28;19980;-70
2023/05/20 06:52:33;;;;;;;;;;;;;;;;;;5005913;28;19925;-70
2023/05/20 06:55:00;;;;;;;;;;;;;;;;;;5006579;28;19984;-70
2023/05/20 06:57:27;;;;;;;;;;;;;;;;;;4992924;28;20448;-70
2023/05/20 06:59:54;;;;;;;;;;;;;;;;;;4997116;28;19926;-70
2023/05/20 07:02:22;;;;;;;;;;;;;;;;;;5008152;28;19926;-70
2023/05/20 07:04:49;;;;;;;;;;;;;;;;;;5008480;28;20032;-70
2023/05/20 07:07:16;;;;;;;;;;;;;;;;;;5006003;28;19926;-70
2023/05/20 07:09:43;;;;;;;;;;;;;;;;;;5006534;28;19926;-70
2023/05/20 07:12:10;;;;;;;;;;;;;;;;;;5004562;28;19929;-71
2023/05/20 07:14:38;;;;;;;;;;;;;;;;;;5003808;28;19972;-71
2023/05/20 07:17:05;;;;;;;;;;;;;;;;;;5006886;28;19929;-71
2023/05/20 07:19:32;;;;;;;;;;;;;;;;;;5010652;28;19929;-71
2023/05/20 07:21:59;;;;;;;;;;;;;;;;;;5000944;28;20439;-71
2023/05/20 07:24:27;;;;;;;;;;;;;;;;;;5008207;28;19934;-71
2023/05/20 07:26:54;;;;;;;;;;;;;;;;;;5005970;28;20458;-72
2023/05/20 07:29:21;;;;;;;;;;;;;;;;;;5004482;28;19925;-70
2023/05/20 07:31:48;;;;;;;;;;;;;;;;;;5011615;28;19995;-70
2023/05/20 07:34:15;;;;;;;;;;;;;;;;;;5003421;28;19925;-70
2023/05/20 07:36:42;;;;;;;;;;;;;;;;;;5013758;28;19926;-71
2023/05/20 07:39:09;;;;;;;;;;;;;;;;;;5010524;28;19936;-70
2023/05/20 07:41:36;;;;;;;;;;;;;;;;;;5015270;28;20012;-71
2023/05/20 07:44:03;;;;;;;;;;;;;;;;;;5014778;28;20014;-70
2023/05/20 07:46:30;;;;;;;;;;;;;;;;;;5014344;28;20269;-71
2023/05/20 07:48:57;;;;;;;;;;;;;;;;;;5013470;28;19925;-71
2023/05/20 07:51:24;;;;;;;;;;;;;;;;;;5012976;28;19925;-71
2023/05/20 07:53:51;;;;;;;;;;;;;;;;;;5008773;28;19930;-71
2023/05/20 07:56:18;;;;;;;;;;;;;;;;;;5013328;28;20399;-70
2023/05/20 07:58:47;;;;;;;;;;;;;;;;;;5007508;28;19929;-71
2023/05/20 08:01:14;;;;;;;;;;;;;;;;;;5010882;28;20016;-71
2023/05/20 08:03:41;;;;;;;;;;;;;;;;;;5009756;28;20013;-71
2023/05/20 08:06:08;;;;;;;;;;;;;;;;;;5010199;28;19991;-71
2023/05/20 08:08:35;;;;;;;;;;;;;;;;;;5011616;28;20300;-72
2023/05/20 08:11:02;;;;;;;;;;;;;;;;;;5009881;28;19975;-71
2023/05/20 08:13:29;;;;;;;;;;;;;;;;;;5006082;28;20385;-71
2023/05/20 08:15:56;;;;;;;;;;;;;;;;;;5010389;28;20022;-71
2023/05/20 08:18:24;;;;;;;;;;;;;;;;;;5001087;28;19934;-70
2023/05/20 08:20:51;;;;;;;;;;;;;;;;;;5006931;28;19929;-70
2023/05/20 08:23:18;;;;;;;;;;;;;;;;;;5011697;28;19934;-70
2023/05/20 08:25:47;;;;;;;;;;;;;;;;;;5012396;28;19980;-71
2023/05/20 08:28:14;;;;;;;;;;;;;;;;;;5009790;28;19929;-71
2023/05/20 08:30:41;;;;;;;;;;;;;;;;;;5008431;28;19926;-71
2023/05/20 08:33:08;;;;;;;;;;;;;;;;;;5013068;28;19930;-71
2023/05/20 08:35:35;;;;;;;;;;;;;;;;;;5003764;28;19926;-70
2023/05/20 08:38:02;;;;;;;;;;;;;;;;;;5012627;28;20355;-71
2023/05/20 08:40:29;;;;;;;;;;;;;;;;;;5003086;28;19980;-71
2023/05/20 08:42:57;;;;;;;;;;;;;;;;;;5012836;28;20339;-70
2023/05/20 08:45:27;;;;;;;;;;;;;;;;;;5014001;28;19936;-71
2023/05/20 08:47:54;;;;;;;;;;;;;;;;;;5012413;28;20358;-70
2023/05/20 08:50:21;;;;;;;;;;;;;;;;;;5013828;28;20312;-70
2023/05/20 08:52:49;;;;;;;;;;;;;;;;;;5009147;28;19975;-71
2023/05/20 08:55:16;;;;;;;;;;;;;;;;;;5011305;28;19931;-71
2023/05/20 08:57:44;;;;;;;;;;;;;;;;;;5012001;28;19936;-71
2023/05/20 09:00:12;;;;;;;;;;;;;;;;;;5001198;28;20444;-70
2023/05/20 09:02:39;;;;;;;;;;;;;;;;;;5005136;28;19932;-70
2023/05/20 09:05:06;;;;;;;;;;;;;;;;;;5004236;28;20347;-70
2023/05/20 09:07:33;;;;;;;;;;;;;;;;;;5006900;28;19995;-70
2023/05/20 09:10:00;;;;;;;;;;;;;;;;;;5002802;28;19961;-70
2023/05/20 09:12:27;;;;;;;;;;;;;;;;;;5008076;28;20316;-71
2023/05/20 09:14:54;;;;;;;;;;;;;;;;;;5011516;28;20285;-70
2023/05/20 09:17:21;;;;;;;;;;;;;;;;;;5000589;28;19926;-71
2023/05/20 09:19:48;;;;;;;;;;;;;;;;;;5009027;28;19926;-70
2023/05/20 09:22:15;;;;;;;;;;;;;;;;;;5010553;28;19987;-71
2023/05/20 09:24:42;;;;;;;;;;;;;;;;;;5007427;28;19937;-71
2023/05/20 09:27:09;;;;;;;;;;;;;;;;;;5009378;28;19968;-71
2023/05/20 09:29:36;;;;;;;;;;;;;;;;;;5009489;28;19933;-70
2023/05/20 09:32:03;;;;;;;;;;;;;;;;;;5000835;28;19929;-70
2023/05/20 09:34:31;;;;;;;;;;;;;;;;;;5009352;28;20474;-70
2023/05/20 09:36:58;;;;;;;;;;;;;;;;;;5010038;28;20393;-71
2023/05/20 09:39:25;;;;;;;;;;;;;;;;;;5006692;28;19979;-72
2023/05/20 09:41:53;;;;;;;;;;;;;;;;;;5004674;28;19940;-71
2023/05/20 09:44:20;;;;;;;;;;;;;;;;;;5008530;28;19926;-70
2023/05/20 09:46:48;;;;;;;;;;;;;;;;;;5000330;28;19933;-70
2023/05/20 09:49:15;;;;;;;;;;;;;;;;;;5008433;28;19925;-71
2023/05/20 09:51:42;;;;;;;;;;;;;;;;;;5007983;28;19932;-70
2023/05/20 09:54:09;;;;;;;;;;;;;;;;;;5008085;28;20447;-71
2023/05/20 09:56:36;;;;;;;;;;;;;;;;;;5003809;28;19930;-71
2023/05/20 09:59:03;;;;;;;;;;;;;;;;;;5011579;28;20452;-71
2023/05/20 10:01:30;;;;;;;;;;;;;;;;;;5010796;28;19979;-72
2023/05/20 10:03:57;;;;;;;;;;;;;;;;;;5009394;28;19925;-70
2023/05/20 10:06:24;;;;;;;;;;;;;;;;;;5006920;28;19933;-69
2023/05/20 10:08:51;;;;;;;;;;;;;;;;;;4999747;28;19933;-71
2023/05/20 10:11:18;;;;;;;;;;;;;;;;;;5002494;28;19987;-71
2023/05/20 10:13:46;;;;;;;;;;;;;;;;;;4998985;28;20377;-70
2023/05/20 10:16:13;;;;;;;;;;;;;;;;;;5011554;28;19925;-71
2023/05/20 10:18:40;;;;;;;;;;;;;;;;;;5010799;28;19925;-70
2023/05/20 10:21:07;;;;;;;;;;;;;;;;;;5005341;28;20344;-71
2023/05/20 10:23:34;;;;;;;;;;;;;;;;;;5008013;28;19925;-71
2023/05/20 10:26:01;;;;;;;;;;;;;;;;;;5011920;28;20015;-71
2023/05/20 10:28:28;;;;;;;;;;;;;;;;;;5008131;28;19926;-70
2023/05/20 10:30:55;;;;;;;;;;;;;;;;;;5009380;28;19984;-71
2023/05/20 10:33:22;;;;;;;;;;;;;;;;;;5005896;28;20455;-71
2023/05/20 10:35:49;;;;;;;;;;;;;;;;;;5009917;28;19925;-71
2023/05/20 10:38:16;;;;;;;;;;;;;;;;;;5009118;28;19925;-70
2023/05/20 10:40:43;;;;;;;;;;;;;;;;;;5010024;28;19929;-71
2023/05/20 10:43:11;;;;;;;;;;;;;;;;;;5009609;28;20360;-71
2023/05/20 10:45:38;;;;;;;;;;;;;;;;;;5002069;28;19932;-71
2023/05/20 10:48:05;;;;;;;;;;;;;;;;;;5004100;28;19999;-69
2023/05/20 10:50:32;;;;;;;;;;;;;;;;;;5000556;28;19926;-72
2023/05/20 10:52:59;;;;;;;;;;;;;;;;;;5007971;28;19925;-72
2023/05/20 10:55:26;;;;;;;;;;;;;;;;;;5006398;28;19961;-71
2023/05/20 10:57:53;;;;;;;;;;;;;;;;;;5002801;28;19960;-72
2023/05/20 11:00:20;;;;;;;;;;;;;;;;;;5007227;28;19968;-71
2023/05/20 11:02:47;;;;;;;;;;;;;;;;;;5001988;28;19960;-71
2023/05/20 11:05:14;;;;;;;;;;;;;;;;;;5008025;28;19969;-72
2023/05/20 11:07:41;;;;;;;;;;;;;;;;;;5008186;28;19987;-71
2023/05/20 11:10:08;;;;;;;;;;;;;;;;;;5009282;28;20008;-70
2023/05/20 11:12:35;;;;;;;;;;;;;;;;;;5003892;28;20380;-71
2023/05/20 11:15:02;;;;;;;;;;;;;;;;;;5008737;28;19926;-71
2023/05/20 11:17:29;;;;;;;;;;;;;;;;;;5010430;28;19944;-71
2023/05/20 11:19:59;;;;;;;;;;;;;;;;;;5008590;28;19933;-70
2023/05/20 11:22:30;;;;;;;;;;;;;;;;;;5007326;28;19932;-71
2023/05/20 11:24:57;;;;;;;;;;;;;;;;;;5007149;28;19926;-70
2023/05/20 11:27:24;;;;;;;;;;;;;;;;;;5010980;28;19926;-70
2023/05/20 11:29:51;;;;;;;;;;;;;;;;;;5007343;28;19999;-71
2023/05/20 11:32:18;;;;;;;;;;;;;;;;;;5010601;28;19926;-71
2023/05/20 11:34:46;;;;;;;;;;;;;;;;;;5011285;28;20375;-70
2023/05/20 11:37:14;;;;;;;;;;;;;;;;;;5010503;28;20000;-70
2023/05/20 11:39:41;;;;;;;;;;;;;;;;;;5008940;28;19937;-70
2023/05/20 11:42:08;;;;;;;;;;;;;;;;;;5004658;28;20380;-71
2023/05/20 11:44:35;;;;;;;;;;;;;;;;;;5010832;28;19988;-71
2023/05/20 11:47:02;;;;;;;;;;;;;;;;;;5009455;28;19965;-70
2023/05/20 11:49:29;;;;;;;;;;;;;;;;;;4993360;28;20428;-71
2023/05/20 11:51:57;;;;;;;;;;;;;;;;;;5004857;28;19933;-71
2023/05/20 11:54:24;;;;;;;;;;;;;;;;;;5010673;28;19948;-70
2023/05/20 11:56:51;;;;;;;;;;;;;;;;;;5006847;28;19933;-69
2023/05/20 11:59:18;;;;;;;;;;;;;;;;;;5002590;28;20668;-69
2023/05/20 12:01:45;;;;;;;;;;;;;;;;;;4995720;28;19991;-70
2023/05/20 12:04:13;;;;;;;;;;;;;;;;;;5013368;28;19925;-70
2023/05/20 12:06:41;;;;;;;;;;;;;;;;;;5013903;28;20012;-70
2023/05/20 12:09:09;;;;;;;;;;;;;;;;;;5010062;28;20385;-70
2023/05/20 12:11:36;;;;;;;;;;;;;;;;;;4998753;28;19973;-70
2023/05/20 12:14:03;;;;;;;;;;;;;;;;;;4998427;28;20031;-71
2023/05/20 12:16:30;;;;;;;;;;;;;;;;;;5013408;28;19925;-69
2023/05/20 12:18:57;;;;;;;;;;;;;;;;;;5012048;28;20561;-70
2023/05/20 12:21:24;;;;;;;;;;;;;;;;;;5004392;28;19930;-72
2023/05/20 12:23:56;;;;;;;;;;;;;;;;;;5004201;28;20557;-71
2023/05/20 12:26:23;;;;;;;;;;;;;;;;;;5008693;28;19957;-71
2023/05/20 12:28:50;;;;;;;;;;;;;;;;;;4999169;28;19941;-73
2023/05/20 12:31:17;;;;;;;;;;;;;;;;;;5001418;28;19984;-71
2023/05/20 12:33:44;;;;;;;;;;;;;;;;;;5008004;28;20377;-70
2023/05/20 12:36:11;;;;;;;;;;;;;;;;;;5004934;28;19958;-71
2023/05/20 12:38:38;;;;;;;;;;;;;;;;;;5007251;28;19932;-71
2023/05/20 12:41:05;;;;;;;;;;;;;;;;;;5013624;28;19930;-70
2023/05/20 12:43:32;;;;;;;;;;;;;;;;;;5013339;28;20339;-71
2023/05/20 12:46:00;;;;;;;;;;;;;;;;;;5011979;28;19933;-70
2023/05/20 12:48:26;;;;;;;;;;;;;;;;;;5011409;28;19932;-71
2023/05/20 12:50:53;;;;;;;;;;;;;;;;;;5012221;28;19964;-70
2023/05/20 12:53:20;;;;;;;;;;;;;;;;;;5011079;28;19933;-70
2023/05/20 12:55:47;;;;;;;;;;;;;;;;;;5012268;28;19951;-71
2023/05/20 12:58:15;;;;;;;;;;;;;;;;;;5010617;28;19964;-72
2023/05/20 13:00:41;;;;;;;;;;;;;;;;;;5002624;28;19925;-72
2023/05/20 13:03:09;;;;;;;;;;;;;;;;;;5011135;28;20381;-71
2023/05/20 13:05:36;;;;;;;;;;;;;;;;;;5009725;28;19930;-70
2023/05/20 13:08:03;;;;;;;;;;;;;;;;;;5014096;28;19975;-70
2023/05/20 13:10:30;;;;;;;;;;;;;;;;;;5004738;28;20316;-71
2023/05/20 13:12:57;;;;;;;;;;;;;;;;;;5009726;28;20026;-70
2023/05/20 13:15:24;;;;;;;;;;;;;;;;;;5013058;28;19925;-71
2023/05/20 13:17:51;;;;;;;;;;;;;;;;;;5012916;28;19932;-72
2023/05/20 13:20:18;;;;;;;;;;;;;;;;;;5009658;28;19930;-71
2023/05/20 13:22:45;;;;;;;;;;;;;;;;;;5009216;28;19929;-71
2023/05/20 13:25:12;;;;;;;;;;;;;;;;;;5012910;28;20292;-71
2023/05/20 13:27:40;;;;;;;;;;;;;;;;;;5029141;28;19925;-72
2023/05/20 13:30:07;;;;;;;;;;;;;;;;;;5012546;28;19930;-72
2023/05/20 13:32:34;;;;;;;;;;;;;;;;;;5010895;28;19925;-70
2023/05/20 13:35:01;;;;;;;;;;;;;;;;;;5010843;28;20387;-71
2023/05/20 13:37:28;;;;;;;;;;;;;;;;;;5014992;28;19978;-71
2023/05/20 13:39:55;;;;;;;;;;;;;;;;;;5012772;28;19930;-72
2023/05/20 13:42:22;;;;;;;;;;;;;;;;;;5005831;28;19964;-71
2023/05/20 13:44:50;;;;;;;;;;;;;;;;;;5011147;28;20003;-71
2023/05/20 13:47:17;;;;;;;;;;;;;;;;;;4998792;28;20027;-73
2023/05/20 13:49:44;;;;;;;;;;;;;;;;;;5006250;28;19925;-74
2023/05/20 13:52:11;;;;;;;;;;;;;;;;;;5011125;28;20382;-71
2023/05/20 13:54:38;;;;;;;;;;;;;;;;;;5008958;28;19925;-72
2023/05/20 13:57:06;;;;;;;;;;;;;;;;;;5019694;28;19925;-72
2023/05/20 13:59:33;;;;;;;;;;;;;;;;;;5015881;28;20403;-72
2023/05/20 14:02:00;;;;;;;;;;;;;;;;;;5012896;28;19972;-72
2023/05/20 14:04:27;;;;;;;;;;;;;;;;;;5000786;28;20286;-72
2023/05/20 14:06:55;;;;;;;;;;;;;;;;;;5011234;28;19925;-73
2023/05/20 14:09:22;;;;;;;;;;;;;;;;;;5009278;28;19968;-71
2023/05/20 14:11:50;;;;;;;;;;;;;;;;;;5010484;28;19926;-71
2023/05/20 14:14:17;;;;;;;;;;;;;;;;;;5010876;28;19991;-70
2023/05/20 14:16:46;;;;;;;;;;;;;;;;;;5010488;28;20384;-70
2023/05/20 14:19:13;;;;;;;;;;;;;;;;;;5011270;28;20011;-70
2023/05/20 14:21:40;;;;;;;;;;;;;;;;;;5006513;28;19926;-69
2023/05/20 14:24:07;;;;;;;;;;;;;;;;;;4999247;28;19926;-70
2023/05/20 14:26:34;;;;;;;;;;;;;;;;;;5003335;28;20343;-70
2023/05/20 14:29:01;;;;;;;;;;;;;;;;;;5011827;28;19925;-70
2023/05/20 14:31:28;;;;;;;;;;;;;;;;;;5008607;28;19932;-70
2023/05/20 14:33:55;;;;;;;;;;;;;;;;;;5009501;28;19930;-70
2023/05/20 14:36:22;;;;;;;;;;;;;;;;;;5011356;28;19925;-69
2023/05/20 14:38:49;;;;;;;;;;;;;;;;;;5009040;28;19964;-70
2023/05/20 14:41:16;;;;;;;;;;;;;;;;;;5009798;28;19929;-70
2023/05/20 14:43:43;;;;;;;;;;;;;;;;;;5006074;28;19940;-70
2023/05/20 14:46:10;;;;;;;;;;;;;;;;;;5005502;28;19964;-70
2023/05/20 14:48:37;;;;;;;;;;;;;;;;;;5007906;28;20071;-70
2023/05/20 14:51:04;;;;;;;;;;;;;;;;;;5006616;28;19925;-70
2023/05/20 14:53:31;;;;;;;;;;;;;;;;;;5006022;28;20017;-69
2023/05/20 14:55:58;;;;;;;;;;;;;;;;;;5007431;28;20001;-70
2023/05/20 14:58:25;;;;;;;;;;;;;;;;;;5011670;28;20052;-70
2023/05/20 15:00:52;;;;;;;;;;;;;;;;;;4996558;28;19926;-71
2023/05/20 15:03:19;;;;;;;;;;;;;;;;;;5003530;28;20400;-70
2023/05/20 15:05:46;;;;;;;;;;;;;;;;;;5001525;28;20343;-71
2023/05/20 15:08:13;;;;;;;;;;;;;;;;;;5004767;28;19925;-71
2023/05/20 15:10:40;;;;;;;;;;;;;;;;;;5008505;28;19925;-71
2023/05/20 15:13:07;;;;;;;;;;;;;;;;;;5004755;28;20046;-71
2023/05/20 15:15:34;;;;;;;;;;;;;;;;;;5009632;28;19984;-71
2023/05/20 15:18:01;;;;;;;;;;;;;;;;;;5006754;28;19926;-71
2023/05/20 15:20:28;;;;;;;;;;;;;;;;;;5010044;28;19941;-71
2023/05/20 15:22:55;;;;;;;;;;;;;;;;;;5010787;28;20119;-72
2023/05/20 15:25:22;;;;;;;;;;;;;;;;;;5009824;28;20000;-71
2023/05/20 15:27:49;;;;;;;;;;;;;;;;;;5000485;28;20049;-71
2023/05/20 15:30:17;;;;;;;;;;;;;;;;;;5010103;28;19957;-71
2023/05/20 15:32:44;;;;;;;;;;;;;;;;;;5007850;28;19931;-72
2023/05/20 15:35:11;;;;;;;;;;;;;;;;;;5010497;28;19996;-71
2023/05/20 15:37:38;;;;;;;;;;;;;;;;;;5014933;28;19965;-71
2023/05/20 15:40:05;;;;;;;;;;;;;;;;;;5014779;28;19936;-71
2023/05/20 15:42:32;;;;;;;;;;;;;;;;;;5022373;28;19925;-71
2023/05/20 15:44:59;;;;;;;;;;;;;;;;;;5010859;28;20743;-71
2023/05/20 15:47:26;;;;;;;;;;;;;;;;;;5013425;28;19973;-71
2023/05/20 15:49:56;;;;;;;;;;;;;;;;;;5012349;28;20420;-70
2023/05/20 15:52:23;;;;;;;;;;;;;;;;;;5009615;28;20316;-70
2023/05/20 15:54:50;;;;;;;;;;;;;;;;;;5010588;28;19926;-70
2023/05/20 15:57:17;;;;;;;;;;;;;;;;;;5005157;28;20388;-72
2023/05/20 15:59:44;;;;;;;;;;;;;;;;;;5007699;28;19925;-70
2023/05/20 16:02:11;;;;;;;;;;;;;;;;;;5006704;28;20020;-71
2023/05/20 16:04:38;;;;;;;;;;;;;;;;;;4998672;28;19925;-70
2023/05/20 16:07:05;;;;;;;;;;;;;;;;;;5009862;28;19983;-70
2023/05/20 16:09:32;;;;;;;;;;;;;;;;;;5004088;28;19996;-70
2023/05/20 16:11:59;;;;;;;;;;;;;;;;;;5008021;28;19926;-70
2023/05/20 16:14:26;;;;;;;;;;;;;;;;;;5006796;28;20003;-70
2023/05/20 16:16:53;;;;;;;;;;;;;;;;;;5012768;28;19968;-70
2023/05/20 16:19:20;;;;;;;;;;;;;;;;;;5011621;28;20004;-70
2023/05/20 16:21:47;;;;;;;;;;;;;;;;;;5011098;28;19929;-70
2023/05/20 16:24:14;;;;;;;;;;;;;;;;;;5009864;28;20292;-69
2023/05/20 16:26:41;;;;;;;;;;;;;;;;;;5011314;28;19972;-69
2023/05/20 16:29:08;;;;;;;;;;;;;;;;;;5013557;28;20261;-70
2023/05/20 16:31:35;;;;;;;;;;;;;;;;;;5011757;28;19980;-70
2023/05/20 16:34:02;;;;;;;;;;;;;;;;;;5000409;28;19984;-70
2023/05/20 16:36:29;;;;;;;;;;;;;;;;;;5005072;28;19926;-70
2023/05/20 16:38:56;;;;;;;;;;;;;;;;;;5006016;28;19941;-71
2023/05/20 16:41:25;;;;;;;;;;;;;;;;;;5009874;28;20396;-70
2023/05/20 16:43:52;;;;;;;;;;;;;;;;;;5012031;28;19972;-70